首页
METAR-TAF:

METAR-TAF

机场 :

Val-d'Or, 魁北克, 加拿大

纬度: 48-04N, 经度: 077-47W, 海拔: 337米

当前天气观测

该预报发布于35分钟前的16:17 UTC
风速6节,风向西转西南,有时为15节阵风,在南转西南西之间变化
温度 21°C
湿度 69%
气压 1009 hPa
能見度: 24.1公里
少量云层高于2000英尺
多云层高于3700英尺, 积雨云.
多云层高于8500英尺
雷暴

METAR: CYVO 261617Z 24006G15KT 210V280 15SM TS FEW020 BKN037CB BKN085 21/15 A2981 RMK CF1CB4AC2 VCSH S-SE LTGIC SLP098 DENSITY ALT 2200FT

时间: 12:52 (16:52 UTC)

预报

该预报发布于30分钟前的16:22 UTC
预报有效从26日的 16点(UTC)到 26日的 24点(UTC)
风速10节,风向南转西南,有时为20节阵风
能見度: 4.8公里
多云层高于2000英尺
多云层高于4000英尺, 积雨云.
雷暴, 雨, 轻雾
短暂存在
从 26日的 16点(UTC)到 26日的 19点(UTC)
能見度: 10公里
散云层高于2000英尺
多云层高于4000英尺
从 26日的 1900点(UTC)
风速12节,风向南转西南,有时为22节阵风
能見度: 10公里
多云层高于2500英尺
短暂存在
从 26日的 19点(UTC)到 26日的 24点(UTC)
能見度: 8.0公里
多云层高于2000英尺
小阵雨, 轻雾
几率 30%
从 26日的 19点(UTC)到 26日的 21点(UTC)
风速15节,风向多变,有时为25节阵风
能見度: 3.2公里
多云层高于2000英尺
阴天层高于3000英尺, 积雨云.
雷暴, 大雨, 轻雾

TAF: CYVO 261622Z 2616/2624 20010G20KT 3SM TSRA BR BKN020 BKN040CB TEMPO 2616/2619 P6SM NSW SCT020 BKN040 FM261900 21012G22KT P6SM BKN025 TEMPO 2619/2624 5SM -SHRA BR BKN020 PROB30 2619/2621 VRB15G25KT 2SM +TSRA BR BKN020 OVC030CB RMK NXT FCST BY 261800Z

超过4000个机场的气象观测和天气预报(METAR&TAF报告)。

可查询的气象台以黄色和红色小点在地图上表示。

将鼠标移到小点上方,可查看气象台名称。

然后点击查看天气观测和预报。

如需切换地图:点击带黑十字的绿色按钮放大地图;点击带横线的绿色按钮缩小地图;或者点击绿色箭头查看邻近地区的地图。


METAR-TAF: